createdAt,value
2023-05-13T00:00:29.494Z,2.83
2023-05-13T00:02:55.960Z,3.03
2023-05-13T00:05:22.440Z,2.60
2023-05-13T00:07:48.959Z,2.85
2023-05-13T00:10:16.563Z,3.13
2023-05-13T00:12:43.803Z,2.58
2023-05-13T00:15:10.480Z,3.10
2023-05-13T00:17:37.228Z,3.00
2023-05-13T00:20:04.045Z,2.80
2023-05-13T00:22:30.688Z,3.00
2023-05-13T00:24:57.117Z,2.78
2023-05-13T00:27:23.541Z,3.10
2023-05-13T00:29:49.986Z,2.97
2023-05-13T00:32:16.547Z,2.97
2023-05-13T00:34:42.933Z,3.42
2023-05-13T00:37:10.516Z,3.08
2023-05-13T00:39:37.010Z,3.42
2023-05-13T00:42:06.418Z,3.67
2023-05-13T00:44:32.840Z,3.30
2023-05-13T00:46:59.323Z,3.42
2023-05-13T00:49:25.802Z,3.25
2023-05-13T00:51:55.139Z,3.42
2023-05-13T00:54:21.657Z,3.70
2023-05-13T00:56:48.152Z,2.88
2023-05-13T00:59:14.576Z,3.60
2023-05-13T01:01:59.551Z,3.08
2023-05-13T01:04:44.791Z,3.22
2023-05-13T01:07:20.608Z,2.97
2023-05-13T01:10:03.545Z,3.30
2023-05-13T01:12:32.446Z,3.42
2023-05-13T01:15:19.116Z,3.22
2023-05-13T01:18:04.014Z,2.75
2023-05-13T01:20:31.532Z,3.53
2023-05-13T01:22:57.944Z,2.63
2023-05-13T01:25:25.791Z,3.25
2023-05-13T01:27:52.912Z,2.67
2023-05-13T01:30:20.052Z,2.63
2023-05-13T01:32:46.779Z,2.88
2023-05-13T01:35:14.262Z,3.13
2023-05-13T01:37:41.598Z,2.72
2023-05-13T01:40:28.163Z,2.85
2023-05-13T01:42:54.981Z,3.55
2023-05-13T01:45:21.476Z,2.92
2023-05-13T01:47:47.908Z,3.22
2023-05-13T01:50:14.435Z,3.05
2023-05-13T01:52:40.854Z,2.75
2023-05-13T01:55:07.636Z,3.25
2023-05-13T01:57:34.015Z,3.05
2023-05-13T02:00:00.442Z,2.80
2023-05-13T02:02:26.947Z,2.88
2023-05-13T02:04:53.369Z,2.70
2023-05-13T02:07:19.748Z,2.70
2023-05-13T02:09:46.160Z,3.05
2023-05-13T02:12:12.541Z,2.70
2023-05-13T02:14:39.005Z,2.72
2023-05-13T02:17:05.440Z,2.95
2023-05-13T02:19:31.822Z,3.20
2023-05-13T02:21:58.476Z,3.08
2023-05-13T02:24:25.902Z,3.40
2023-05-13T02:26:53.058Z,2.90
2023-05-13T02:29:19.559Z,3.15
2023-05-13T02:31:46.033Z,3.30
2023-05-13T02:34:12.561Z,3.00
2023-05-13T02:36:39.087Z,3.83
2023-05-13T02:39:05.525Z,3.83
2023-05-13T02:41:32.160Z,4.15
2023-05-13T02:43:58.585Z,3.83
2023-05-13T02:46:25.088Z,3.28
2023-05-13T02:48:51.472Z,3.75
2023-05-13T02:51:17.899Z,4.10
2023-05-13T02:53:44.271Z,4.07
2023-05-13T02:56:10.701Z,3.90
2023-05-13T02:58:37.192Z,4.00
2023-05-13T03:01:03.610Z,3.10
2023-05-13T03:03:30.253Z,3.50
2023-05-13T03:05:56.807Z,3.10
2023-05-13T03:08:23.234Z,3.35
2023-05-13T03:10:49.625Z,3.55
2023-05-13T03:13:16.292Z,3.97
2023-05-13T03:15:44.349Z,3.67
2023-05-13T03:18:11.233Z,3.17
2023-05-13T03:20:37.785Z,3.53
2023-05-13T03:23:04.277Z,3.63
2023-05-13T03:25:31.391Z,3.50
2023-05-13T03:27:57.882Z,3.28
2023-05-13T03:30:24.339Z,3.85
2023-05-13T03:32:50.916Z,3.25
2023-05-13T03:35:17.506Z,3.97
2023-05-13T03:37:43.937Z,3.78
2023-05-13T03:40:10.602Z,3.67
2023-05-13T03:42:37.052Z,3.90
2023-05-13T03:45:03.532Z,3.55
2023-05-13T03:47:29.940Z,3.70
2023-05-13T03:49:56.324Z,3.38
2023-05-13T03:52:22.797Z,4.18
2023-05-13T03:54:49.296Z,3.33
2023-05-13T03:57:15.979Z,4.35
2023-05-13T03:59:42.362Z,3.85
2023-05-13T04:02:08.832Z,4.05
2023-05-13T04:04:35.327Z,3.78
2023-05-13T04:07:01.820Z,4.03
2023-05-13T04:09:28.244Z,3.80
2023-05-13T04:11:54.686Z,4.15
2023-05-13T04:14:21.094Z,3.95
2023-05-13T04:16:47.616Z,3.97
2023-05-13T04:19:14.257Z,3.83
2023-05-13T04:21:40.768Z,3.40
2023-05-13T04:24:07.390Z,3.60
2023-05-13T04:26:33.899Z,3.97
2023-05-13T04:29:00.320Z,4.07
2023-05-13T04:31:26.823Z,4.05
2023-05-13T04:33:53.261Z,3.78
2023-05-13T04:36:19.727Z,4.03
2023-05-13T04:38:46.088Z,3.72
2023-05-13T04:41:12.515Z,3.65
2023-05-13T04:43:38.888Z,4.05
2023-05-13T04:46:05.547Z,3.58
2023-05-13T04:48:32.081Z,4.10
2023-05-13T04:50:59.092Z,3.90
2023-05-13T04:53:25.848Z,3.88
2023-05-13T04:55:57.183Z,4.15
2023-05-13T04:58:24.842Z,4.13
2023-05-13T05:00:51.248Z,3.60
2023-05-13T05:03:17.716Z,4.45
2023-05-13T05:05:44.129Z,3.83
2023-05-13T05:08:10.756Z,3.95
2023-05-13T05:10:37.186Z,4.35
2023-05-13T05:13:03.660Z,4.25
2023-05-13T05:15:30.057Z,4.22
2023-05-13T05:17:57.189Z,3.85
2023-05-13T05:20:24.476Z,3.38
2023-05-13T05:22:50.919Z,4.05
2023-05-13T05:25:17.344Z,3.55
2023-05-13T05:27:43.845Z,2.85
2023-05-13T05:30:10.831Z,2.58
2023-05-13T05:32:37.531Z,3.22
2023-05-13T05:35:04.197Z,2.38
2023-05-13T05:37:30.782Z,2.83
2023-05-13T05:39:57.165Z,3.85
2023-05-13T05:42:23.592Z,3.30
2023-05-13T05:44:49.987Z,4.68
2023-05-13T05:47:16.354Z,4.35
2023-05-13T05:49:42.776Z,4.78
2023-05-13T05:52:11.193Z,3.70
2023-05-13T05:54:37.759Z,3.63
2023-05-13T05:57:04.408Z,3.42
2023-05-13T05:59:30.824Z,2.88
2023-05-13T06:01:57.322Z,3.08
2023-05-13T06:04:24.800Z,2.95
2023-05-13T06:06:51.285Z,3.35
2023-05-13T06:09:17.805Z,3.63
2023-05-13T06:11:44.231Z,2.70
2023-05-13T06:14:10.925Z,2.85
2023-05-13T06:16:37.342Z,2.30
2023-05-13T06:19:03.799Z,1.85
2023-05-13T06:21:31.692Z,1.70
2023-05-13T06:23:58.125Z,1.80
2023-05-13T06:26:24.550Z,2.10
2023-05-13T06:28:50.939Z,1.88
2023-05-13T06:31:17.648Z,2.65
2023-05-13T06:33:44.073Z,1.77
2023-05-13T06:36:10.705Z,1.02
2023-05-13T06:38:37.150Z,1.40
2023-05-13T06:41:03.648Z,1.35
2023-05-13T06:43:30.095Z,1.17
2023-05-13T06:45:56.727Z,1.33
2023-05-13T06:48:23.240Z,1.30
2023-05-13T06:50:49.855Z,0.93
2023-05-13T06:53:16.315Z,1.20
2023-05-13T06:55:42.831Z,1.30
2023-05-13T06:58:09.403Z,1.25
2023-05-13T07:00:39.122Z,1.20
2023-05-13T07:03:05.958Z,1.45
2023-05-13T07:05:32.808Z,1.27
2023-05-13T07:07:59.277Z,1.30
2023-05-13T07:10:25.816Z,1.52
2023-05-13T07:12:52.330Z,1.35
2023-05-13T07:15:18.927Z,1.77
2023-05-13T07:17:45.661Z,1.52
2023-05-13T07:20:12.919Z,1.58
2023-05-13T07:22:39.382Z,1.20
2023-05-13T07:25:06.166Z,1.63
2023-05-13T07:27:32.587Z,1.30
2023-05-13T07:29:58.957Z,1.40
2023-05-13T07:32:25.445Z,1.38
2023-05-13T07:34:51.908Z,1.40
2023-05-13T07:37:18.753Z,1.42
2023-05-13T07:39:45.194Z,1.20
2023-05-13T07:42:11.590Z,1.10
2023-05-13T07:44:38.024Z,1.50
2023-05-13T07:47:04.523Z,1.40
2023-05-13T07:49:30.993Z,1.58
2023-05-13T07:51:57.496Z,1.60
2023-05-13T07:54:23.966Z,1.42
2023-05-13T07:56:50.600Z,1.48
2023-05-13T07:59:17.912Z,1.40
2023-05-13T08:01:44.311Z,1.20
2023-05-13T08:04:10.979Z,1.45
2023-05-13T08:06:37.609Z,1.73
2023-05-13T08:09:04.069Z,1.40
2023-05-13T08:11:30.579Z,1.52
2023-05-13T08:13:57.625Z,1.50
2023-05-13T08:16:24.136Z,1.50
2023-05-13T08:18:50.658Z,1.27
2023-05-13T08:21:17.109Z,1.45
2023-05-13T08:23:45.865Z,1.35
2023-05-13T08:26:12.751Z,1.73
2023-05-13T08:28:39.194Z,1.38
2023-05-13T08:31:05.668Z,2.08
2023-05-13T08:33:32.535Z,1.63
2023-05-13T08:35:59.719Z,1.60
2023-05-13T08:38:26.312Z,1.50
2023-05-13T08:40:52.938Z,1.88
2023-05-13T08:43:19.413Z,1.80
2023-05-13T08:45:46.892Z,2.05
2023-05-13T08:48:15.049Z,1.98
2023-05-13T08:50:41.580Z,2.05
2023-05-13T08:53:07.985Z,1.80
2023-05-13T08:55:34.437Z,1.88
2023-05-13T08:58:00.984Z,1.83
2023-05-13T09:00:27.412Z,2.42
2023-05-13T09:02:53.873Z,2.50
2023-05-13T09:05:21.001Z,2.15
2023-05-13T09:07:47.677Z,2.10
2023-05-13T09:10:15.538Z,2.20
2023-05-13T09:12:52.065Z,2.35
2023-05-13T09:15:19.800Z,2.47
2023-05-13T09:17:59.414Z,2.67
2023-05-13T09:20:26.732Z,2.60
2023-05-13T09:22:57.065Z,2.58
2023-05-13T09:25:27.129Z,2.72
2023-05-13T09:27:55.607Z,2.85
2023-05-13T09:30:22.162Z,2.60
2023-05-13T09:33:14.965Z,3.17
2023-05-13T09:35:45.519Z,2.60
2023-05-13T09:38:22.351Z,2.80
2023-05-13T09:40:52.533Z,2.78
2023-05-13T09:43:22.716Z,2.78
2023-05-13T09:45:52.741Z,2.90
2023-05-13T09:48:21.061Z,2.53
2023-05-13T09:50:48.808Z,2.90
2023-05-13T09:53:16.048Z,3.03
2023-05-13T09:55:49.130Z,3.33
2023-05-13T09:58:15.942Z,3.22
2023-05-13T10:00:43.209Z,2.92
2023-05-13T10:03:10.721Z,3.20
2023-05-13T10:05:38.363Z,2.95
2023-05-13T10:08:05.137Z,2.63
2023-05-13T10:10:32.789Z,2.40
2023-05-13T10:13:03.850Z,2.80
2023-05-13T10:15:30.885Z,3.17
2023-05-13T10:17:57.791Z,2.83
2023-05-13T10:20:27.773Z,3.10
2023-05-13T10:22:54.867Z,2.40
2023-05-13T10:25:21.429Z,2.63
2023-05-13T10:27:48.391Z,2.83
2023-05-13T10:30:16.170Z,2.97
2023-05-13T10:32:42.908Z,3.45
2023-05-13T10:35:13.063Z,2.47
2023-05-13T10:37:42.519Z,3.30
2023-05-13T10:40:27.891Z,2.75
2023-05-13T10:43:12.273Z,2.80
2023-05-13T10:45:38.792Z,2.88
2023-05-13T10:48:08.682Z,2.63
2023-05-13T10:50:39.061Z,3.08
2023-05-13T10:53:19.146Z,3.40
2023-05-13T10:55:46.301Z,2.45
2023-05-13T10:58:16.208Z,2.63
2023-05-13T11:00:43.718Z,2.70
2023-05-13T11:03:14.087Z,2.75
2023-05-13T11:05:41.599Z,2.70
2023-05-13T11:08:08.140Z,3.10
2023-05-13T11:10:34.637Z,3.15
2023-05-13T11:13:16.402Z,2.70
2023-05-13T11:15:46.120Z,2.60
2023-05-13T11:18:13.137Z,2.13
2023-05-13T11:20:51.610Z,2.78
2023-05-13T11:23:21.999Z,2.25
2023-05-13T11:26:10.054Z,2.60
2023-05-13T11:28:53.395Z,3.05
2023-05-13T11:31:21.271Z,2.72
2023-05-13T11:34:06.442Z,2.85
2023-05-13T11:36:33.809Z,3.00
2023-05-13T11:39:14.015Z,3.40
2023-05-13T11:41:41.516Z,3.00
2023-05-13T11:44:08.154Z,3.22
2023-05-13T11:46:35.015Z,3.17
2023-05-13T11:49:01.395Z,2.70
2023-05-13T11:51:28.703Z,3.15
2023-05-13T11:54:01.953Z,3.15
2023-05-13T11:56:28.726Z,3.80
2023-05-13T11:58:55.686Z,3.10
2023-05-13T12:01:22.116Z,3.25
2023-05-13T12:03:48.563Z,4.13
2023-05-13T12:06:15.865Z,3.63
2023-05-13T12:08:46.252Z,3.83
2023-05-13T12:11:13.319Z,3.97
2023-05-13T12:13:41.210Z,3.80
2023-05-13T12:16:07.731Z,3.60
2023-05-13T12:18:34.575Z,4.03
2023-05-13T12:21:13.134Z,3.58
2023-05-13T12:23:40.719Z,3.03
2023-05-13T12:26:07.875Z,3.25
2023-05-13T12:28:34.381Z,3.55
2023-05-13T12:31:01.899Z,4.00
2023-05-13T12:33:32.493Z,3.83
2023-05-13T12:36:20.022Z,4.18
2023-05-13T12:39:05.077Z,3.63
2023-05-13T12:41:32.444Z,3.47
2023-05-13T12:44:00.225Z,4.05
2023-05-13T12:46:26.934Z,3.30
2023-05-13T12:48:55.251Z,3.30
2023-05-13T12:51:21.856Z,3.90
2023-05-13T12:53:48.293Z,4.32
2023-05-13T12:56:15.075Z,3.72
2023-05-13T12:58:41.942Z,3.65
2023-05-13T13:01:08.389Z,4.13
2023-05-13T13:03:36.109Z,4.43
2023-05-13T13:06:02.670Z,4.65
2023-05-13T13:08:30.536Z,4.70
2023-05-13T13:10:58.263Z,6.30
2023-05-13T13:13:24.691Z,5.35
2023-05-13T13:15:51.140Z,5.45
2023-05-13T13:18:18.044Z,3.65
2023-05-13T13:20:44.468Z,4.18
2023-05-13T13:23:10.885Z,4.43
2023-05-13T13:25:37.487Z,4.65
2023-05-13T13:28:04.064Z,4.22
2023-05-13T13:30:30.734Z,5.07
2023-05-13T13:32:57.252Z,4.65
2023-05-13T13:35:23.932Z,4.45
2023-05-13T13:37:50.533Z,4.78
2023-05-13T13:40:18.441Z,4.25
2023-05-13T13:42:45.296Z,4.10
2023-05-13T13:45:12.637Z,3.75
2023-05-13T13:47:39.390Z,4.20
2023-05-13T13:50:06.459Z,4.20
2023-05-13T13:52:32.935Z,4.07
2023-05-13T13:54:59.485Z,4.25
2023-05-13T13:57:25.897Z,4.25
2023-05-13T13:59:52.287Z,4.40
2023-05-13T14:02:18.796Z,4.10
2023-05-13T14:04:46.465Z,4.38
2023-05-13T14:07:13.096Z,4.10
2023-05-13T14:09:39.557Z,3.65
2023-05-13T14:12:06.021Z,3.50
2023-05-13T14:14:32.481Z,3.90
2023-05-13T14:16:58.889Z,3.90
2023-05-13T14:19:25.371Z,3.65
2023-05-13T14:21:51.740Z,3.63
2023-05-13T14:24:18.133Z,3.20
2023-05-13T14:26:45.140Z,3.00
2023-05-13T14:29:12.869Z,3.55
2023-05-13T14:31:39.382Z,3.72
2023-05-13T14:34:07.932Z,3.53
2023-05-13T14:36:34.655Z,2.70
2023-05-13T14:39:01.073Z,3.10
2023-05-13T14:41:29.238Z,3.20
2023-05-13T14:43:55.649Z,3.75
2023-05-13T14:46:22.215Z,4.53
2023-05-13T14:48:48.694Z,3.50
2023-05-13T14:51:15.369Z,3.80
2023-05-13T14:53:42.543Z,3.42
2023-05-13T14:56:08.983Z,2.92
2023-05-13T14:58:35.507Z,3.45
2023-05-13T15:01:02.033Z,3.50
2023-05-13T15:03:28.745Z,3.28
2023-05-13T15:05:56.086Z,3.00
2023-05-13T15:08:22.671Z,3.45
2023-05-13T15:10:49.226Z,3.60
2023-05-13T15:13:15.715Z,3.13
2023-05-13T15:15:42.163Z,3.42
2023-05-13T15:18:08.670Z,3.67
2023-05-13T15:20:35.172Z,3.25
2023-05-13T15:23:01.585Z,3.15
2023-05-13T15:25:28.035Z,3.20
2023-05-13T15:27:54.503Z,3.10
2023-05-13T15:30:21.107Z,4.15
2023-05-13T15:32:47.824Z,3.95
2023-05-13T15:35:15.504Z,4.10
2023-05-13T15:37:42.695Z,3.80
2023-05-13T15:40:09.291Z,3.90
2023-05-13T15:42:35.812Z,4.00
2023-05-13T15:45:02.255Z,4.63
2023-05-13T15:47:28.821Z,4.35
2023-05-13T15:49:55.371Z,3.53
2023-05-13T15:52:21.777Z,3.95
2023-05-13T15:54:48.194Z,4.18
2023-05-13T15:57:14.980Z,4.15
2023-05-13T15:59:41.399Z,4.22
2023-05-13T16:02:07.895Z,4.20
2023-05-13T16:04:34.444Z,4.35
2023-05-13T16:07:00.940Z,5.50
2023-05-13T16:09:27.467Z,6.40
2023-05-13T16:11:54.605Z,5.40
2023-05-13T16:14:21.057Z,5.50
2023-05-13T16:16:47.627Z,4.20
2023-05-13T16:19:14.198Z,4.43
2023-05-13T16:21:42.105Z,4.78
2023-05-13T16:24:08.585Z,4.82
2023-05-13T16:26:34.967Z,4.93
2023-05-13T16:29:01.483Z,5.13
2023-05-13T16:31:28.092Z,4.65
2023-05-13T16:33:54.491Z,4.68
2023-05-13T16:36:20.960Z,5.10
2023-05-13T16:38:47.398Z,4.53
2023-05-13T16:41:13.794Z,5.28
2023-05-13T16:43:40.217Z,5.25
2023-05-13T16:46:06.613Z,5.85
2023-05-13T16:48:33.026Z,4.35
2023-05-13T16:50:59.482Z,4.82
2023-05-13T16:53:26.327Z,5.47
2023-05-13T16:55:52.863Z,4.90
2023-05-13T16:58:19.299Z,4.82
2023-05-13T17:00:46.091Z,5.18
2023-05-13T17:03:13.774Z,5.15
2023-05-13T17:05:40.372Z,5.97
2023-05-13T17:08:06.809Z,4.97
2023-05-13T17:10:33.385Z,5.22
2023-05-13T17:13:00.056Z,4.78
2023-05-13T17:15:26.529Z,5.05
2023-05-13T17:17:52.996Z,5.50
2023-05-13T17:20:20.509Z,4.64
2023-05-13T17:22:47.657Z,5.47
2023-05-13T17:25:14.540Z,5.30
2023-05-13T17:27:41.016Z,4.97
2023-05-13T17:30:07.906Z,5.68
2023-05-13T17:32:34.869Z,5.63
2023-05-13T17:35:01.446Z,5.88
2023-05-13T17:37:27.888Z,5.45
2023-05-13T17:39:55.061Z,5.40
2023-05-13T17:42:21.789Z,5.10
2023-05-13T17:44:48.291Z,5.47
2023-05-13T17:47:14.822Z,5.78
2023-05-13T17:49:41.233Z,5.90
2023-05-13T17:52:07.662Z,6.53
2023-05-13T17:54:34.162Z,6.40
2023-05-13T17:57:00.575Z,6.68
2023-05-13T17:59:27.031Z,6.00
2023-05-13T18:01:53.531Z,5.68
2023-05-13T18:04:20.170Z,5.60
2023-05-13T18:06:46.544Z,5.10
2023-05-13T18:09:13.011Z,6.03
2023-05-13T18:11:39.431Z,6.03
2023-05-13T18:14:06.851Z,5.47
2023-05-13T18:16:33.412Z,6.13
2023-05-13T18:18:59.916Z,5.10
2023-05-13T18:21:28.779Z,5.88
2023-05-13T18:23:55.868Z,6.35
2023-05-13T18:26:23.090Z,5.95
2023-05-13T18:28:49.736Z,6.45
2023-05-13T18:31:16.457Z,5.63
2023-05-13T18:33:42.885Z,5.47
2023-05-13T18:36:10.262Z,5.97
2023-05-13T18:38:36.875Z,6.85
2023-05-13T18:41:03.682Z,6.82
2023-05-13T18:43:30.554Z,7.43
2023-05-13T18:45:57.856Z,5.55
2023-05-13T18:48:25.112Z,5.18
2023-05-13T18:50:53.029Z,5.07
2023-05-13T18:53:19.556Z,5.53
2023-05-13T18:55:46.378Z,5.35
2023-05-13T18:58:13.518Z,5.47
2023-05-13T19:00:39.972Z,5.78
2023-05-13T19:03:06.598Z,6.10
2023-05-13T19:05:33.228Z,6.30
2023-05-13T19:08:00.699Z,6.22
2023-05-13T19:10:27.265Z,5.70
2023-05-13T19:12:53.693Z,5.93
2023-05-13T19:15:21.395Z,6.70
2023-05-13T19:17:47.983Z,6.70
2023-05-13T19:20:16.156Z,6.50
2023-05-13T19:22:42.585Z,6.13
2023-05-13T19:25:09.154Z,5.75
2023-05-13T19:27:36.130Z,6.07
2023-05-13T19:30:02.677Z,6.47
2023-05-13T19:32:29.477Z,6.35
2023-05-13T19:34:55.963Z,6.78
2023-05-13T19:37:22.450Z,6.13
2023-05-13T19:39:48.871Z,6.15
2023-05-13T19:42:15.291Z,5.53
2023-05-13T19:44:42.311Z,5.75
2023-05-13T19:47:09.184Z,6.18
2023-05-13T19:49:35.625Z,5.68
2023-05-13T19:52:02.078Z,5.97
2023-05-13T19:54:28.534Z,6.07
2023-05-13T19:56:54.940Z,5.65
2023-05-13T19:59:21.624Z,6.40
2023-05-13T20:01:48.071Z,5.60
2023-05-13T20:04:14.552Z,6.57
2023-05-13T20:06:41.031Z,6.28
2023-05-13T20:09:08.478Z,6.00
2023-05-13T20:11:34.909Z,5.80
2023-05-13T20:14:01.864Z,5.43
2023-05-13T20:16:28.851Z,5.80
2023-05-13T20:18:55.323Z,5.30
2023-05-13T20:21:21.740Z,5.75
2023-05-13T20:23:48.188Z,5.28
2023-05-13T20:26:14.683Z,5.63
2023-05-13T20:28:41.162Z,5.00
2023-05-13T20:31:07.593Z,5.22
2023-05-13T20:33:34.074Z,5.10
2023-05-13T20:36:00.927Z,5.72
2023-05-13T20:38:27.363Z,5.45
2023-05-13T20:40:53.789Z,5.45
2023-05-13T20:43:20.245Z,5.55
2023-05-13T20:45:46.704Z,5.45
2023-05-13T20:48:13.643Z,5.43
2023-05-13T20:50:40.190Z,6.03
2023-05-13T20:53:07.179Z,5.88
2023-05-13T20:55:33.616Z,5.82
2023-05-13T20:58:00.023Z,5.85
2023-05-13T21:00:26.460Z,5.40
2023-05-13T21:02:53.909Z,5.65
2023-05-13T21:05:22.246Z,5.32
2023-05-13T21:07:48.865Z,5.97
2023-05-13T21:10:16.114Z,5.25
2023-05-13T21:12:47.100Z,5.68
2023-05-13T21:15:14.574Z,5.00
2023-05-13T21:17:41.258Z,4.68
2023-05-13T21:20:08.236Z,4.90
2023-05-13T21:22:34.632Z,5.03
2023-05-13T21:25:01.162Z,4.60
2023-05-13T21:27:27.562Z,6.20
2023-05-13T21:29:53.954Z,4.80
2023-05-13T21:32:20.525Z,4.10
2023-05-13T21:34:46.923Z,4.85
2023-05-13T21:37:14.363Z,4.60
2023-05-13T21:39:41.392Z,4.45
2023-05-13T21:42:08.044Z,4.30
2023-05-13T21:44:34.455Z,4.38
2023-05-13T21:47:00.927Z,3.85
2023-05-13T21:49:27.376Z,4.43
2023-05-13T21:51:53.864Z,4.55
2023-05-13T21:54:20.267Z,4.82
2023-05-13T21:56:46.680Z,4.63
2023-05-13T21:59:13.131Z,4.60
2023-05-13T22:01:39.543Z,4.85
2023-05-13T22:04:05.966Z,4.35
2023-05-13T22:06:33.601Z,4.13
2023-05-13T22:09:01.280Z,4.38
2023-05-13T22:11:27.850Z,3.58
2023-05-13T22:13:54.224Z,3.92
2023-05-13T22:16:20.804Z,4.55
2023-05-13T22:18:48.422Z,3.70
2023-05-13T22:21:14.897Z,4.07
2023-05-13T22:23:41.320Z,3.88
2023-05-13T22:26:07.746Z,4.55
2023-05-13T22:28:34.111Z,4.25
2023-05-13T22:31:00.650Z,3.92
2023-05-13T22:33:27.111Z,3.85
2023-05-13T22:35:53.551Z,3.95
2023-05-13T22:38:19.944Z,4.07
2023-05-13T22:40:46.612Z,3.92
2023-05-13T22:43:13.036Z,4.40
2023-05-13T22:45:39.448Z,4.70
2023-05-13T22:48:06.142Z,5.78
2023-05-13T22:50:32.781Z,6.00
2023-05-13T22:52:59.198Z,5.55
2023-05-13T22:55:25.672Z,4.72
2023-05-13T22:57:52.111Z,4.85
2023-05-13T23:00:18.547Z,4.65
2023-05-13T23:02:44.996Z,4.15
2023-05-13T23:05:11.481Z,5.13
2023-05-13T23:07:37.943Z,4.97
2023-05-13T23:10:04.583Z,4.70
2023-05-13T23:12:31.094Z,4.68
2023-05-13T23:14:57.547Z,4.05
2023-05-13T23:17:23.994Z,4.70
2023-05-13T23:19:50.612Z,4.63
2023-05-13T23:22:17.152Z,4.07
2023-05-13T23:24:43.618Z,4.18
2023-05-13T23:27:10.118Z,3.58
2023-05-13T23:29:36.514Z,3.80
2023-05-13T23:32:03.883Z,3.42
2023-05-13T23:34:32.268Z,3.70
2023-05-13T23:36:58.744Z,3.72
2023-05-13T23:39:25.184Z,3.65
2023-05-13T23:41:51.642Z,3.97
2023-05-13T23:44:18.097Z,3.60
2023-05-13T23:46:44.520Z,3.55
2023-05-13T23:49:10.938Z,4.35
2023-05-13T23:51:38.378Z,3.38
2023-05-13T23:54:04.800Z,3.67
2023-05-13T23:56:31.227Z,3.78
2023-05-13T23:58:57.731Z,4.00
